This demonstration page uses our WeatherBlox Daily Observations layout. Learn more.

39.01783, -85.05884

Hourly Observations for August 11, 2019

Temp ( °F °C ) Dew Point ( °F °C ) Humidity (%) Winds ( mph kmh ) Pressure ( in mb ) Visibility ( mi km ) Precip ( " mm )
1:52 am 01:52 Clear 69 20.6 54 12.2 59 59 E 3 6 30 1016 10 16.09344 0 0
2:52 am 02:52 Clear 65 18.3 55 12.8 70 70 Calm 30 1016 10 16.09344 0 0
3:52 am 03:52 Mostly Clear 65 18.3 54 12.2 68 68 Calm 30 1016 10 16.09344 0 0
4:52 am 04:52 Mostly Clear 67 19.4 55 12.8 66 66 Calm 30 1016 10 16.09344 0 0
5:52 am 05:52 Mostly Clear 65 18.3 56 13.3 73 73 ESE 5 7 30 1016 10 16.09344 0 0
6:52 am 06:52 Mostly Sunny 64 17.8 56 13.3 75 75 SE 7 11 30.03 1017 10 16.09344 0 0
7:52 am 07:52 Mostly Sunny 67 19.4 57 13.9 71 71 ESE 7 11 30.03 1017 10 16.09344 0 0
8:52 am 08:52 Mostly Sunny 71 21.7 56 13.3 59 59 ESE 10 17 30.03 1017 10 16.09344 0 0
9:52 am 09:52 Partly Cloudy 75 23.9 57 13.9 54 54 ESE 10 17 30.03 1017 10 16.09344 0 0
10:52 am 10:52 Partly Cloudy 78 25.6 57 13.9 48 48 ESE 9 15 30.06 1018 10 16.09344 0 0
11:52 am 11:52 Partly Cloudy 80 26.7 57 13.9 45 45 E 10 17 30.06 1018 10 16.09344 0 0
12:52 pm 12:52 Mostly Cloudy 81 27.2 57 13.9 44 44 ESE 7 11 30.03 1017 10 16.09344 0 0
1:52 pm 13:52 Mostly Cloudy 83 28.3 58 14.4 43 43 E 8 13 30.03 1017 10 16.09344 0 0
2:52 pm 14:52 Mostly Cloudy 83 28.3 56 13.3 40 40 Calm 30.03 1017 10 16.09344 0 0
3:52 pm 15:52 Mostly Cloudy 84 28.9 57 13.9 40 40 E 5 7 30 1016 10 16.09344 0 0
4:52 pm 16:52 Mostly Cloudy 86 30 58 14.4 39 39 Calm 30 1016 10 16.09344 0 0
5:52 pm 17:52 Mostly Cloudy 85 29.4 57 13.9 39 39 ENE 7 11 29.97 1015 10 16.09344 0 0
6:52 pm 18:52 Mostly Cloudy 82 27.8 58 14.4 44 44 ESE 9 15 29.97 1015 10 16.09344 0 0
7:52 pm 19:52 Mostly Cloudy 79 26.1 59 15 50 50 S 3 6 29.97 1015 10 16.09344 0 0
8:52 pm 20:52 Mostly Cloudy 77 25 60 15.6 56 56 SSE 7 11 29.97 1015 10 16.09344 0 0
9:52 pm 21:52 Partly Cloudy 74 23.3 60 15.6 62 62 SSE 7 11 29.97 1015 10 16.09344 0 0
10:52 pm 22:52 Partly Cloudy 75 23.9 59 15 58 58 SSE 5 7 29.97 1015 10 16.09344 0 0
11:52 pm 23:52 Mostly Cloudy 74 23.3 60 15.6 62 62 Calm 29.97 1015 10 16.09344 0 0

Powered by AerisWeather